Time;durP1;ratioP1;P1;durP2;ratioP2;P2;SDS_P1;SDS_P2;PMS_P1;PMS_P2;Temp;Humidity;BMP_temperature;BMP_pressure;BME280_temperature;BME280_humidity;BME280_pressure;Samples;Min_cycle;Max_cycle;Signal;HPM_P1;HPM_P2
2022/03/23 00:01:03;;;;;;;36.38;15.27;;;1.60;99.90;;;;;;5027929;28;20025;-73
2022/03/23 00:03:29;;;;;;;34.17;14.68;;;1.60;99.90;;;;;;5027376;28;20722;-72
2022/03/23 00:05:55;;;;;;;33.17;14.23;;;1.60;99.90;;;;;;5017553;28;20022;-69
2022/03/23 00:08:21;;;;;;;35.75;14.93;;;1.70;99.90;;;;;;5012595;28;20029;-72
2022/03/23 00:10:48;;;;;;;39.55;15.75;;;1.80;99.90;;;;;;5012996;28;20033;-72
2022/03/23 00:13:13;;;;;;;39.25;15.70;;;1.80;99.90;;;;;;5011294;28;20037;-71
2022/03/23 00:15:40;;;;;;;35.13;15.10;;;1.70;99.90;;;;;;5012398;28;20041;-71
2022/03/23 00:18:06;;;;;;;36.38;15.07;;;1.60;99.90;;;;;;5011379;28;20061;-71
2022/03/23 00:20:33;;;;;;;36.60;14.55;;;1.50;99.90;;;;;;5008871;28;20120;-71
2022/03/23 00:22:59;;;;;;;36.28;15.20;;;1.40;99.90;;;;;;5011187;28;20041;-72
2022/03/23 00:25:24;;;;;;;35.20;15.00;;;1.30;99.90;;;;;;5012511;28;20044;-72
2022/03/23 00:27:50;;;;;;;35.95;15.52;;;1.30;99.90;;;;;;5025973;28;20036;-72
2022/03/23 00:30:16;;;;;;;36.08;15.98;;;1.20;99.90;;;;;;5012789;28;20022;-72
2022/03/23 00:32:42;;;;;;;38.63;16.45;;;1.20;99.90;;;;;;5011044;28;20044;-73
2022/03/23 00:35:08;;;;;;;32.65;13.15;;;1.10;99.90;;;;;;5010827;28;20029;-72
2022/03/23 00:37:33;;;;;;;34.53;14.32;;;1.10;99.90;;;;;;5011929;28;20101;-72
2022/03/23 00:39:59;;;;;;;37.33;14.65;;;1.10;99.90;;;;;;5022967;28;20117;-70
2022/03/23 00:42:24;;;;;;;33.55;14.15;;;1.10;99.90;;;;;;5012076;28;20076;-72
2022/03/23 00:44:53;;;;;;;37.42;14.68;;;1.00;99.90;;;;;;5010488;28;20030;-72
2022/03/23 00:47:19;;;;;;;42.67;14.65;;;1.00;99.90;;;;;;5026565;28;20041;-72
2022/03/23 00:49:45;;;;;;;30.45;13.50;;;1.10;99.90;;;;;;5017879;28;20033;-72
2022/03/23 00:52:11;;;;;;;33.03;13.90;;;1.20;99.90;;;;;;5011162;28;20037;-72
2022/03/23 00:54:37;;;;;;;38.45;15.48;;;1.10;99.90;;;;;;5022328;28;20037;-72
2022/03/23 00:57:04;;;;;;;36.80;14.30;;;1.10;99.90;;;;;;5018966;28;20051;-71
2022/03/23 00:59:30;;;;;;;32.45;13.93;;;1.00;99.90;;;;;;5013067;28;20517;-72
2022/03/23 01:01:57;;;;;;;40.28;15.52;;;0.90;99.90;;;;;;5017296;28;20543;-69
2022/03/23 01:04:23;;;;;;;35.20;13.80;;;0.90;99.90;;;;;;5010785;28;20050;-72
2022/03/23 01:06:49;;;;;;;28.98;12.93;;;0.80;99.90;;;;;;5013106;28;20036;-72
2022/03/23 01:09:16;;;;;;;34.53;14.23;;;0.80;99.90;;;;;;5010312;28;20913;-72
2022/03/23 01:11:42;;;;;;;33.80;13.88;;;0.80;99.90;;;;;;5010316;28;20042;-73
2022/03/23 01:14:08;;;;;;;32.50;13.80;;;0.80;99.90;;;;;;5010747;28;20030;-72
2022/03/23 01:16:34;;;;;;;33.42;13.40;;;0.90;99.90;;;;;;5021736;28;20030;-72
2022/03/23 01:19:00;;;;;;;35.35;14.32;;;0.90;99.90;;;;;;5022798;28;20148;-70
2022/03/23 01:21:26;;;;;;;34.53;14.32;;;1.10;99.90;;;;;;5011130;28;20041;-72
2022/03/23 01:23:52;;;;;;;33.65;13.82;;;1.00;99.90;;;;;;5010832;28;20038;-72
2022/03/23 01:26:17;;;;;;;38.78;14.65;;;1.00;99.90;;;;;;5010191;28;20061;-73
2022/03/23 01:28:43;;;;;;;43.55;15.68;;;1.00;99.90;;;;;;5011564;28;20026;-72
2022/03/23 01:31:10;;;;;;;37.13;14.57;;;0.70;99.90;;;;;;5009379;28;20117;-71
2022/03/23 01:33:35;;;;;;;35.90;14.23;;;0.60;99.90;;;;;;4991442;28;20469;-73
2022/03/23 01:36:02;;;;;;;35.45;14.05;;;0.60;99.90;;;;;;5006032;28;20040;-70
2022/03/23 01:38:28;;;;;;;35.83;14.52;;;0.50;99.90;;;;;;5015809;28;20373;-73
2022/03/23 01:40:54;;;;;;;36.05;13.95;;;0.50;99.90;;;;;;5011024;28;20033;-73
2022/03/23 01:43:20;;;;;;;33.60;14.43;;;0.60;99.90;;;;;;5010135;28;20154;-72
2022/03/23 01:45:45;;;;;;;39.00;14.82;;;0.70;99.90;;;;;;5011259;28;20072;-73
2022/03/23 01:48:11;;;;;;;35.60;14.82;;;0.80;99.90;;;;;;5011765;28;20116;-71
2022/03/23 01:50:37;;;;;;;36.05;14.25;;;0.90;99.90;;;;;;5015442;28;20120;-72
2022/03/23 01:53:03;;;;;;;35.60;14.52;;;0.70;99.90;;;;;;5019099;28;20433;-70
2022/03/23 01:55:29;;;;;;;32.78;13.55;;;0.50;99.90;;;;;;5011184;28;20452;-72
2022/03/23 01:57:54;;;;;;;32.35;14.18;;;0.40;99.90;;;;;;5010839;28;20034;-72
2022/03/23 02:00:21;;;;;;;36.22;13.43;;;0.40;99.90;;;;;;5009626;28;20025;-72
2022/03/23 02:02:47;;;;;;;32.83;13.32;;;0.30;99.90;;;;;;5008162;28;20125;-73
2022/03/23 02:05:14;;;;;;;32.53;13.20;;;0.30;99.90;;;;;;5010238;28;20121;-72
2022/03/23 02:07:39;;;;;;;31.83;13.70;;;0.40;99.90;;;;;;5026498;28;20045;-72
2022/03/23 02:10:06;;;;;;;29.75;12.85;;;0.30;99.90;;;;;;5009705;28;20030;-72
2022/03/23 02:12:32;;;;;;;31.63;13.38;;;0.30;99.90;;;;;;5016736;28;20046;-72
2022/03/23 02:15:00;;;;;;;33.95;13.82;;;0.30;99.90;;;;;;5008935;28;20030;-72
2022/03/23 02:17:26;;;;;;;36.40;13.75;;;0.30;99.90;;;;;;5025292;28;20030;-72
2022/03/23 02:19:52;;;;;;;34.78;13.27;;;0.20;99.90;;;;;;5010998;28;20045;-72
2022/03/23 02:22:18;;;;;;;34.33;14.20;;;0.10;99.90;;;;;;5009680;28;20528;-73
2022/03/23 02:24:46;;;;;;;36.85;14.50;;;0.10;99.90;;;;;;5010132;28;20109;-73
2022/03/23 02:27:13;;;;;;;34.53;13.55;;;0.10;99.90;;;;;;5010838;28;20038;-73
2022/03/23 02:29:45;;;;;;;35.88;13.38;;;0.10;99.90;;;;;;5025815;28;20025;-74
2022/03/23 02:32:13;;;;;;;38.22;13.30;;;0.10;99.90;;;;;;5020155;28;20083;-73
2022/03/23 02:34:39;;;;;;;33.95;13.48;;;0.00;99.90;;;;;;5028632;28;20037;-73
2022/03/23 02:37:05;;;;;;;40.50;14.75;;;-0.10;99.90;;;;;;5014182;28;20026;-71
2022/03/23 02:39:30;;;;;;;33.58;13.32;;;-0.10;99.90;;;;;;5009515;28;20037;-73
2022/03/23 02:41:56;;;;;;;35.97;14.23;;;-0.10;99.90;;;;;;5009673;28;20492;-73
2022/03/23 02:44:23;;;;;;;27.60;12.93;;;0.00;99.90;;;;;;5008931;28;20048;-73
2022/03/23 02:46:48;;;;;;;29.80;12.43;;;-0.10;99.90;;;;;;5008979;28;20163;-73
2022/03/23 02:49:20;;;;;;;37.03;13.95;;;-0.10;99.90;;;;;;5008295;28;20156;-73
2022/03/23 02:51:46;;;;;;;37.03;14.60;;;-0.10;99.90;;;;;;5009277;28;20120;-74
2022/03/23 03:02:55;;;;;;;33.33;12.73;;;-0.10;99.90;;;;;;5002775;28;20318;-73
2022/03/23 03:05:21;;;;;;;34.60;13.50;;;0.00;99.90;;;;;;5009564;28;20069;-73
2022/03/23 03:10:31;;;;;;;34.85;13.90;;;-0.20;99.90;;;;;;4987994;28;20178;-73
2022/03/23 03:12:56;;;;;;;32.60;13.40;;;-0.20;99.90;;;;;;5002739;28;20085;-72
2022/03/23 03:15:22;;;;;;;36.95;14.30;;;-0.10;99.90;;;;;;5026720;28;20029;-73
2022/03/23 03:17:48;;;;;;;37.78;14.38;;;0.00;99.90;;;;;;5009044;28;20112;-73
2022/03/23 03:20:14;;;;;;;39.15;14.80;;;0.10;99.90;;;;;;5008433;28;20835;-72
2022/03/23 03:22:41;;;;;;;38.78;13.30;;;0.10;99.90;;;;;;5009381;28;20034;-73
2022/03/23 03:25:07;;;;;;;35.42;14.02;;;0.10;99.90;;;;;;5009813;28;20034;-71
2022/03/23 03:27:38;;;;;;;37.10;14.35;;;0.10;99.90;;;;;;5017952;28;20153;-74
2022/03/23 03:30:08;;;;;;;35.25;13.60;;;0.10;99.90;;;;;;5009218;28;20030;-72
2022/03/23 03:35:56;;;;;;;39.38;14.23;;;0.00;99.90;;;;;;5003196;28;20033;-73
2022/03/23 03:38:22;;;;;;;38.05;13.85;;;-0.20;99.90;;;;;;5007907;28;20041;-73
2022/03/23 03:40:48;;;;;;;29.48;12.93;;;-0.30;99.90;;;;;;5008745;28;20483;-73
2022/03/23 03:43:16;;;;;;;30.95;12.93;;;-0.50;99.90;;;;;;5007930;28;20068;-74
2022/03/23 03:45:43;;;;;;;34.05;14.23;;;-0.50;99.90;;;;;;5008668;28;20041;-73
2022/03/23 03:48:08;;;;;;;37.78;13.80;;;-0.60;99.90;;;;;;5008527;28;20030;-71
2022/03/23 03:50:34;;;;;;;32.45;13.18;;;-0.60;99.90;;;;;;5008251;28;20469;-74
2022/03/23 03:53:02;;;;;;;36.67;13.95;;;-0.50;99.90;;;;;;5008610;28;20456;-73
2022/03/23 03:55:28;;;;;;;33.78;14.10;;;-0.60;99.90;;;;;;5007159;28;20109;-73
2022/03/23 03:57:53;;;;;;;37.25;14.75;;;-0.60;99.90;;;;;;5009602;28;20113;-73
2022/03/23 04:00:19;;;;;;;33.47;13.13;;;-0.60;99.90;;;;;;5006189;28;20453;-73
2022/03/23 04:02:45;;;;;;;36.63;13.85;;;-0.50;99.90;;;;;;5007311;28;20528;-73
2022/03/23 04:05:10;;;;;;;34.20;14.38;;;-0.60;99.90;;;;;;5016179;28;20026;-71
2022/03/23 04:07:36;;;;;;;36.75;14.10;;;-0.80;99.90;;;;;;5009172;28;20041;-73
2022/03/23 04:10:03;;;;;;;33.05;13.98;;;-0.80;99.90;;;;;;5014168;28;20071;-72
2022/03/23 04:12:29;;;;;;;31.17;13.50;;;-0.70;99.90;;;;;;5015956;28;20696;-72
2022/03/23 04:14:55;;;;;;;37.63;13.30;;;-0.60;99.90;;;;;;5008202;28;20108;-73
2022/03/23 04:17:20;;;;;;;35.67;14.38;;;-0.70;99.90;;;;;;5007486;28;20125;-73
2022/03/23 04:19:46;;;;;;;36.63;14.45;;;-0.70;99.90;;;;;;5008359;28;20084;-73
2022/03/23 04:22:12;;;;;;;32.08;13.05;;;-0.70;99.90;;;;;;5015355;28;20120;-71
2022/03/23 04:24:38;;;;;;;34.22;13.23;;;-0.70;99.90;;;;;;5003032;28;20026;-73
2022/03/23 04:27:05;;;;;;;34.80;14.57;;;-0.70;99.90;;;;;;5014434;28;20057;-73
2022/03/23 04:29:31;;;;;;;34.63;13.02;;;-0.70;99.90;;;;;;5022621;28;20014;-72
2022/03/23 04:31:56;;;;;;;34.33;13.95;;;-0.70;99.90;;;;;;5022895;28;20076;-72
2022/03/23 04:34:22;;;;;;;36.35;13.90;;;-0.70;99.90;;;;;;5020666;28;20461;-73
2022/03/23 04:36:48;;;;;;;37.10;14.30;;;-0.60;99.90;;;;;;5002254;28;20033;-73
2022/03/23 04:39:14;;;;;;;36.08;15.32;;;-0.50;99.90;;;;;;5012044;28;20074;-73
2022/03/23 04:41:39;;;;;;;32.03;14.05;;;-0.40;99.90;;;;;;5018588;28;20034;-73
2022/03/23 04:44:05;;;;;;;36.88;13.05;;;-0.40;99.90;;;;;;5014414;28;20113;-72
2022/03/23 04:46:31;;;;;;;37.22;14.20;;;-0.50;99.90;;;;;;5025681;28;20018;-73
2022/03/23 04:48:57;;;;;;;33.80;13.63;;;-0.60;99.90;;;;;;4995850;28;20030;-73
2022/03/23 04:51:23;;;;;;;33.55;12.68;;;-0.60;99.90;;;;;;5010724;28;20026;-72
2022/03/23 04:53:49;;;;;;;33.60;13.73;;;-0.60;99.90;;;;;;5029785;28;20692;-72
2022/03/23 04:56:16;;;;;;;33.95;13.98;;;-0.50;99.90;;;;;;5017894;28;20033;-68
2022/03/23 04:58:43;;;;;;;39.10;14.27;;;-0.50;99.90;;;;;;5004941;28;20095;-71
2022/03/23 05:01:09;;;;;;;36.38;14.45;;;-0.60;99.90;;;;;;5011611;28;20025;-74
2022/03/23 05:03:34;;;;;;;38.30;13.50;;;-0.70;99.90;;;;;;5010639;28;20571;-73
2022/03/23 05:06:00;;;;;;;33.33;13.45;;;-0.80;99.90;;;;;;5011070;28;20152;-72
2022/03/23 05:08:26;;;;;;;39.35;13.48;;;-0.90;99.90;;;;;;5010121;28;20038;-72
2022/03/23 05:10:52;;;;;;;32.70;12.85;;;-1.00;99.90;;;;;;5009951;28;20436;-72
2022/03/23 05:13:17;;;;;;;32.55;13.38;;;-1.00;99.90;;;;;;5010512;28;20041;-74
2022/03/23 05:15:43;;;;;;;35.83;13.90;;;-1.00;99.90;;;;;;5009017;28;20026;-74
2022/03/23 05:18:09;;;;;;;38.03;13.27;;;-1.00;99.90;;;;;;5010941;28;20682;-74
2022/03/23 05:20:35;;;;;;;35.20;13.30;;;-1.00;99.90;;;;;;5008495;28;20808;-74
2022/03/23 05:23:00;;;;;;;32.78;13.07;;;-1.00;99.90;;;;;;5011158;28;20048;-74
2022/03/23 05:25:26;;;;;;;34.72;13.88;;;-1.00;99.90;;;;;;5013667;28;20041;-74
2022/03/23 05:27:52;;;;;;;36.25;13.43;;;-1.10;99.90;;;;;;5010884;28;20049;-73
2022/03/23 05:30:18;;;;;;;35.00;13.52;;;-1.10;99.90;;;;;;5008191;28;20042;-74
2022/03/23 05:32:45;;;;;;;32.85;13.02;;;-1.00;99.90;;;;;;5010590;28;20030;-74
2022/03/23 05:35:13;;;;;;;35.63;13.40;;;-1.10;99.90;;;;;;4998394;28;20022;-74
2022/03/23 05:37:39;;;;;;;35.70;13.85;;;-1.10;99.90;;;;;;5010570;28;20092;-73
2022/03/23 05:40:06;;;;;;;36.75;13.48;;;-1.10;99.90;;;;;;5008692;28;20022;-77
2022/03/23 05:42:32;;;;;;;41.33;14.65;;;-1.10;99.90;;;;;;5008716;28;20034;-73
2022/03/23 05:44:59;;;;;;;37.85;15.35;;;-1.00;99.90;;;;;;5009453;28;20109;-73
2022/03/23 05:47:25;;;;;;;44.47;15.68;;;-1.00;99.90;;;;;;5009058;28;20108;-73
2022/03/23 05:49:51;;;;;;;41.25;16.77;;;-0.80;99.90;;;;;;5009790;28;20559;-73
2022/03/23 05:52:18;;;;;;;36.58;15.00;;;-0.80;99.90;;;;;;5007193;28;20040;-73
2022/03/23 05:54:45;;;;;;;35.78;14.63;;;-0.70;99.90;;;;;;5007356;28;20233;-71
2022/03/23 05:57:10;;;;;;;43.70;16.88;;;-0.50;99.90;;;;;;5011684;28;20033;-71
2022/03/23 05:59:36;;;;;;;45.83;16.60;;;-0.40;99.90;;;;;;5009568;28;20018;-73
2022/03/23 06:02:02;;;;;;;47.05;18.25;;;-0.30;99.90;;;;;;5010691;28;20041;-72
2022/03/23 06:04:28;;;;;;;48.20;17.55;;;-0.20;99.90;;;;;;5008834;28;20054;-73
2022/03/23 06:06:54;;;;;;;45.03;17.88;;;-0.20;99.90;;;;;;5010943;28;20033;-72
2022/03/23 06:09:20;;;;;;;47.10;17.70;;;-0.20;99.90;;;;;;5009467;28;20030;-71
2022/03/23 06:11:46;;;;;;;49.53;18.65;;;-0.10;99.90;;;;;;5010188;28;20054;-72
2022/03/23 06:14:11;;;;;;;43.88;18.35;;;-0.20;99.90;;;;;;5009980;28;20072;-73
2022/03/23 06:16:37;;;;;;;47.13;17.77;;;-0.10;99.90;;;;;;5009716;28;20021;-73
2022/03/23 06:19:03;;;;;;;49.75;18.00;;;0.10;99.90;;;;;;5008339;28;20026;-74
2022/03/23 06:21:29;;;;;;;41.75;16.58;;;0.20;99.90;;;;;;5009221;28;20064;-74
2022/03/23 06:23:56;;;;;;;39.80;16.13;;;0.20;99.90;;;;;;5009343;28;20074;-72
2022/03/23 06:26:22;;;;;;;40.95;15.38;;;0.20;99.90;;;;;;5009544;28;20045;-72
2022/03/23 06:28:48;;;;;;;36.30;15.13;;;0.10;99.90;;;;;;5015954;28;20030;-70
2022/03/23 06:31:13;;;;;;;38.35;15.57;;;0.10;99.90;;;;;;5009642;28;20472;-74
2022/03/23 06:33:39;;;;;;;40.47;16.05;;;0.10;99.90;;;;;;5007044;28;20096;-74
2022/03/23 06:36:05;;;;;;;40.35;16.38;;;0.10;99.90;;;;;;5010482;28;20084;-74
2022/03/23 06:38:32;;;;;;;34.90;14.43;;;0.10;99.90;;;;;;5008960;28;20452;-74
2022/03/23 06:40:58;;;;;;;38.03;15.00;;;0.20;99.90;;;;;;5009151;28;20057;-73
2022/03/23 06:43:26;;;;;;;36.47;14.95;;;0.30;99.90;;;;;;5008591;28;20065;-73
2022/03/23 06:45:52;;;;;;;40.53;15.18;;;0.30;99.90;;;;;;5009626;28;20044;-73
2022/03/23 06:48:18;;;;;;;41.67;15.85;;;0.40;99.90;;;;;;5008142;28;20476;-71
2022/03/23 06:50:43;;;;;;;37.65;15.65;;;0.40;99.90;;;;;;5008637;28;20468;-72
2022/03/23 06:53:09;;;;;;;41.53;17.20;;;0.50;99.90;;;;;;5008694;28;20540;-72
2022/03/23 06:55:35;;;;;;;48.13;17.02;;;0.60;99.90;;;;;;5007902;28;20034;-71
2022/03/23 06:58:01;;;;;;;42.33;16.20;;;0.60;99.90;;;;;;5019921;28;20109;-72
2022/03/23 07:00:27;;;;;;;36.78;15.90;;;0.80;99.90;;;;;;5025624;28;20116;-71
2022/03/23 07:02:52;;;;;;;41.05;15.38;;;0.90;99.90;;;;;;5008272;28;20088;-71
2022/03/23 07:05:19;;;;;;;37.35;16.25;;;1.00;99.90;;;;;;5007291;28;20042;-71
2022/03/23 07:10:37;;;;;;;38.33;15.23;;;1.30;99.90;;;;;;5008635;28;20108;-72
2022/03/23 07:13:03;;;;;;;38.28;15.85;;;1.40;99.90;;;;;;5008900;28;20118;-73
2022/03/23 07:15:29;;;;;;;35.47;15.52;;;1.50;99.90;;;;;;5009224;28;20080;-72
2022/03/23 07:17:55;;;;;;;39.63;17.17;;;1.70;99.90;;;;;;5009035;28;20095;-71
2022/03/23 07:20:21;;;;;;;38.08;16.02;;;1.90;99.90;;;;;;5008829;28;20477;-73
2022/03/23 07:22:46;;;;;;;41.42;16.33;;;2.10;99.90;;;;;;5009401;28;20030;-73
2022/03/23 07:25:13;;;;;;;42.35;17.17;;;2.30;99.90;;;;;;5009570;28;20037;-72
2022/03/23 07:27:39;;;;;;;39.78;16.98;;;2.40;99.90;;;;;;5014026;28;20045;-71
2022/03/23 07:30:06;;;;;;;39.20;16.13;;;2.70;99.90;;;;;;5009216;28;20449;-72
2022/03/23 07:32:31;;;;;;;36.00;15.93;;;2.90;99.90;;;;;;5007267;28;20140;-70
2022/03/23 07:34:57;;;;;;;38.75;16.75;;;3.00;99.90;;;;;;5007705;28;20121;-71
2022/03/23 07:37:23;;;;;;;35.20;15.50;;;3.20;99.90;;;;;;5008362;28;20088;-71
2022/03/23 07:39:49;;;;;;;39.95;16.27;;;3.50;99.90;;;;;;5008580;28;20093;-71
2022/03/23 07:42:14;;;;;;;38.63;15.90;;;3.70;99.90;;;;;;5007490;28;20041;-72
2022/03/23 07:44:40;;;;;;;35.45;15.80;;;3.80;99.90;;;;;;5007898;28;20061;-73
2022/03/23 07:47:10;;;;;;;35.42;16.02;;;4.00;99.90;;;;;;5009365;28;20431;-71
2022/03/23 07:49:36;;;;;;;26.20;11.83;;;4.30;99.90;;;;;;5007836;28;20030;-70
2022/03/23 07:52:02;;;;;;;35.35;14.98;;;4.50;99.90;;;;;;5008812;28;20038;-73
2022/03/23 07:54:28;;;;;;;34.33;15.32;;;4.80;99.90;;;;;;5007809;28;20034;-72
2022/03/23 07:56:54;;;;;;;34.42;15.23;;;5.10;99.90;;;;;;5010426;28;20100;-72
2022/03/23 07:59:20;;;;;;;38.45;14.93;;;5.30;99.90;;;;;;5010668;28;20034;-71
2022/03/23 08:01:45;;;;;;;39.83;15.45;;;5.50;99.90;;;;;;5007280;28;20026;-72
2022/03/23 08:04:11;;;;;;;33.95;14.60;;;5.80;99.90;;;;;;5010960;28;20111;-71
2022/03/23 08:06:37;;;;;;;37.55;15.60;;;6.10;99.90;;;;;;5011812;28;20037;-72
2022/03/23 08:09:03;;;;;;;39.10;16.25;;;6.40;99.90;;;;;;5012590;28;20044;-73
2022/03/23 08:11:30;;;;;;;35.67;16.30;;;6.70;99.90;;;;;;5006693;28;20702;-71
2022/03/23 08:13:56;;;;;;;40.35;16.42;;;7.00;99.90;;;;;;5012393;28;20072;-71
2022/03/23 08:16:23;;;;;;;36.85;15.20;;;7.40;99.90;;;;;;5009153;28;20125;-69
2022/03/23 08:18:49;;;;;;;38.55;16.13;;;7.70;99.90;;;;;;5012784;28;20057;-71
2022/03/23 08:21:17;;;;;;;35.67;16.08;;;8.00;99.90;;;;;;5025700;28;20067;-70
2022/03/23 08:23:43;;;;;;;35.15;16.00;;;8.20;99.90;;;;;;5012896;28;20034;-71
2022/03/23 08:26:10;;;;;;;35.60;15.50;;;8.50;99.90;;;;;;5011810;28;20030;-70
2022/03/23 08:28:38;;;;;;;36.70;15.88;;;8.80;99.90;;;;;;5025630;28;20029;-71
2022/03/23 08:31:04;;;;;;;36.35;15.23;;;9.00;99.90;;;;;;5011039;28;20479;-73
2022/03/23 08:33:32;;;;;;;32.60;15.40;;;9.20;99.90;;;;;;5009623;28;20045;-71
2022/03/23 08:35:59;;;;;;;36.40;15.88;;;9.50;99.90;;;;;;5011421;28;20034;-69
2022/03/23 08:38:24;;;;;;;34.13;15.32;;;9.60;99.90;;;;;;5011207;28;20053;-71
2022/03/23 08:40:50;;;;;;;32.78;15.90;;;9.80;99.90;;;;;;5011974;28;20392;-70
2022/03/23 08:43:16;;;;;;;36.35;15.35;;;10.00;99.90;;;;;;5011889;28;20141;-69
2022/03/23 08:45:42;;;;;;;34.92;15.15;;;10.20;99.90;;;;;;5011052;28;20136;-71
2022/03/23 08:48:09;;;;;;;34.55;16.15;;;10.30;99.90;;;;;;5014485;28;20461;-71
2022/03/23 08:50:35;;;;;;;31.45;15.70;;;10.50;99.90;;;;;;5017014;28;20488;-70
2022/03/23 08:53:02;;;;;;;34.40;15.73;;;10.70;99.90;;;;;;5018968;28;20033;-71
2022/03/23 08:55:29;;;;;;;34.58;15.02;;;10.90;99.90;;;;;;5011207;28;20532;-70
2022/03/23 08:57:55;;;;;;;34.10;15.52;;;11.10;99.90;;;;;;5021935;28;20373;-69
2022/03/23 09:00:21;;;;;;;32.78;15.25;;;11.30;98.10;;;;;;5027118;28;20033;-72
2022/03/23 09:02:47;;;;;;;30.27;14.90;;;11.60;95.80;;;;;;5014443;28;20038;-71
2022/03/23 09:05:14;;;;;;;33.40;14.93;;;11.70;94.50;;;;;;5009353;28;20532;-70
2022/03/23 09:07:43;;;;;;;30.40;15.05;;;11.90;93.00;;;;;;5011938;28;20476;-70
2022/03/23 09:10:11;;;;;;;31.48;14.55;;;12.10;90.30;;;;;;5010978;28;20042;-69
2022/03/23 09:12:37;;;;;;;31.58;15.38;;;12.30;79.70;;;;;;5014171;28;20060;-70
2022/03/23 09:15:08;;;;;;;29.90;15.05;;;12.30;79.10;;;;;;5014406;28;20030;-70
2022/03/23 09:17:34;;;;;;;;;;;12.50;75.60;;;;;;5010967;28;20037;-70
2022/03/23 09:20:03;;;;;;;28.92;13.88;;;12.80;76.20;;;;;;5015975;28;19913;-70
2022/03/23 09:22:28;;;;;;;28.90;14.38;;;12.90;71.70;;;;;;5010635;28;20030;-70
2022/03/23 09:24:55;;;;;;;27.52;13.45;;;13.10;70.20;;;;;;5012946;28;20068;-70
2022/03/23 09:27:20;;;;;;;25.05;13.40;;;13.30;66.00;;;;;;5016041;28;20030;-69
2022/03/23 09:29:46;;;;;;;27.73;14.30;;;13.30;66.60;;;;;;5023822;28;20815;-69
2022/03/23 09:32:12;;;;;;;28.10;14.30;;;13.50;64.90;;;;;;5012497;28;20041;-71
2022/03/23 09:34:39;;;;;;;32.83;13.85;;;13.80;61.90;;;;;;5011360;28;20053;-70
2022/03/23 09:39:51;;;;;;;25.85;13.45;;;13.80;57.60;;;;;;5009942;28;20033;-69
2022/03/23 09:42:18;;;;;;;26.05;13.18;;;13.90;58.70;;;;;;4991584;28;20039;-69
2022/03/23 09:44:46;;;;;;;25.70;12.57;;;14.10;56.50;;;;;;4996107;28;20060;-69
2022/03/23 09:47:11;;;;;;;25.88;13.65;;;14.40;51.30;;;;;;5011006;28;20026;-70
2022/03/23 09:49:37;;;;;;;24.75;12.68;;;14.60;51.50;;;;;;5008173;28;20041;-71
2022/03/23 09:52:05;;;;;;;24.95;12.77;;;14.90;51.20;;;;;;5010851;28;20022;-72
2022/03/23 09:54:30;;;;;;;24.48;12.98;;;15.30;53.40;;;;;;5004024;28;20030;-67
2022/03/23 09:56:56;;;;;;;24.65;11.98;;;15.30;47.50;;;;;;5011428;28;20038;-69
2022/03/23 09:59:22;;;;;;;25.60;12.93;;;15.50;47.50;;;;;;4998197;28;20034;-72
2022/03/23 10:01:49;;;;;;;26.13;12.25;;;15.60;45.70;;;;;;4993887;28;20643;-69
2022/03/23 10:04:20;;;;;;;21.67;11.60;;;15.70;45.70;;;;;;5010313;28;20141;-70
2022/03/23 10:07:10;;;;;;;23.25;12.32;;;15.90;46.10;;;;;;5009369;28;20026;-70
2022/03/23 10:10:14;;;;;;;28.90;13.27;;;16.10;46.10;;;;;;5008483;28;20658;-69
2022/03/23 10:13:19;;;;;;;24.50;12.65;;;16.00;42.80;;;;;;4997746;28;20339;-69
2022/03/23 10:16:40;;;;;;;23.80;12.73;;;16.00;43.50;;;;;;5009597;28;20034;-69
2022/03/23 10:19:05;;;;;;;26.15;12.50;;;15.80;41.20;;;;;;4991912;28;20038;-68
2022/03/23 10:21:37;;;;;;;21.15;10.75;;;15.90;43.10;;;;;;4993868;28;20049;-68
2022/03/23 10:24:03;;;;;;;18.20;10.52;;;16.40;42.90;;;;;;5010147;28;20431;-69
2022/03/23 10:26:31;;;;;;;21.25;10.70;;;16.60;40.20;;;;;;5009772;28;20037;-69
2022/03/23 10:28:58;;;;;;;20.50;11.07;;;16.60;37.40;;;;;;5009847;28;20488;-68
2022/03/23 10:31:26;;;;;;;25.67;11.15;;;16.60;37.80;;;;;;5009843;28;20028;-68
2022/03/23 10:34:09;;;;;;;18.38;10.25;;;16.70;37.10;;;;;;5006715;28;20095;-70
2022/03/23 10:36:51;;;;;;;18.95;10.80;;;16.90;38.30;;;;;;5005137;28;20029;-70
2022/03/23 10:39:19;;;;;;;19.42;10.65;;;17.20;39.10;;;;;;5009277;28;20408;-72
2022/03/23 10:42:00;;;;;;;20.17;10.18;;;17.50;38.50;;;;;;5010403;28;20543;-68
2022/03/23 10:44:26;;;;;;;19.75;10.73;;;17.50;36.60;;;;;;5008165;28;20045;-69
2022/03/23 10:46:56;;;;;;;17.90;10.40;;;17.30;33.80;;;;;;5009354;28;20618;-70
2022/03/23 10:49:31;;;;;;;22.58;10.43;;;17.50;35.10;;;;;;5009372;28;20041;-68
2022/03/23 10:52:07;;;;;;;23.10;11.05;;;17.50;34.70;;;;;;5006687;28;20030;-72
2022/03/23 10:54:33;;;;;;;22.58;10.35;;;17.40;32.50;;;;;;5013647;28;20587;-68
2022/03/23 10:56:58;;;;;;;16.90;10.52;;;17.30;33.00;;;;;;5006000;28;20034;-69
2022/03/23 10:59:26;;;;;;;23.05;10.38;;;17.30;34.50;;;;;;5006486;28;20370;-70
2022/03/23 11:02:04;;;;;;;18.65;11.55;;;17.80;36.90;;;;;;5004731;28;20028;-69
2022/03/23 11:04:44;;;;;;;21.52;10.73;;;17.90;33.30;;;;;;5002724;28;20610;-71
2022/03/23 11:07:26;;;;;;;18.15;10.35;;;18.20;33.90;;;;;;5001507;28;20402;-70
2022/03/23 11:18:11;;;;;;;18.65;9.52;;;18.10;31.50;;;;;;5006815;28;20061;-69
2022/03/23 11:20:47;;;;;;;16.75;10.32;;;18.00;30.00;;;;;;5008794;28;20053;-70
2022/03/23 11:23:23;;;;;;;15.55;9.68;;;18.20;30.60;;;;;;5008989;28;20034;-70
2022/03/23 11:25:55;;;;;;;18.88;10.88;;;18.40;34.60;;;;;;5010336;28;20428;-69
2022/03/23 11:28:22;;;;;;;17.05;10.30;;;18.70;34.30;;;;;;5020754;28;20021;-68
2022/03/23 11:30:50;;;;;;;18.98;10.50;;;19.00;33.40;;;;;;5008625;28;20485;-71
2022/03/23 11:33:21;;;;;;;18.52;11.00;;;19.30;33.80;;;;;;5002851;28;20522;-71
2022/03/23 11:35:48;;;;;;;19.60;12.15;;;19.40;30.60;;;;;;5004851;28;20420;-69
2022/03/23 11:38:19;;;;;;;18.92;11.18;;;19.30;31.50;;;;;;5017022;28;20034;-71
2022/03/23 11:40:47;;;;;;;23.15;11.27;;;19.20;35.50;;;;;;5024672;28;20033;-71
2022/03/23 11:43:14;;;;;;;19.02;11.25;;;19.00;32.40;;;;;;5017241;28;20074;-70
2022/03/23 11:45:42;;;;;;;17.25;10.57;;;19.30;36.10;;;;;;5028665;28;20120;-70
2022/03/23 11:48:41;;;;;;;19.75;11.30;;;19.80;36.90;;;;;;5020359;28;20419;-69
2022/03/23 11:51:18;;;;;;;17.33;10.52;;;20.10;34.60;;;;;;5021247;28;20539;-70
2022/03/23 11:53:51;;;;;;;17.58;10.82;;;20.10;35.00;;;;;;5024331;28;20499;-70
2022/03/23 11:56:47;;;;;;;20.23;10.77;;;20.10;31.80;;;;;;5026176;28;20034;-72
2022/03/23 11:59:24;;;;;;;22.40;11.40;;;20.00;32.30;;;;;;5018517;28;20049;-69
2022/03/23 12:01:52;;;;;;;20.30;11.82;;;20.10;31.10;;;;;;5027581;28;20099;-68
2022/03/23 12:04:23;;;;;;;18.77;11.32;;;20.00;30.40;;;;;;5028921;28;20092;-70
2022/03/23 12:07:00;;;;;;;19.23;11.27;;;20.10;32.10;;;;;;5021503;28;20041;-70
2022/03/23 12:09:28;;;;;;;16.35;10.27;;;20.40;35.60;;;;;;5016350;28;20041;-70
2022/03/23 12:11:54;;;;;;;20.65;10.70;;;20.90;33.60;;;;;;5019741;28;20128;-70
2022/03/23 12:14:30;;;;;;;16.90;9.90;;;21.10;29.40;;;;;;5016336;28;20807;-71
2022/03/23 12:16:56;;;;;;;18.30;11.00;;;21.00;30.90;;;;;;5016313;28;20025;-71
2022/03/23 12:19:33;;;;;;;18.42;11.10;;;21.00;30.50;;;;;;5018812;28;20030;-71
2022/03/23 12:22:07;;;;;;;16.92;10.75;;;20.90;29.30;;;;;;5012489;28;20022;-69
2022/03/23 12:24:59;;;;;;;20.67;10.68;;;20.70;29.30;;;;;;5010570;28;20026;-70
2022/03/23 12:27:53;;;;;;;18.95;11.07;;;20.80;30.10;;;;;;5005964;28;20107;-70
2022/03/23 12:30:37;;;;;;;17.58;10.75;;;20.90;30.00;;;;;;5015542;28;20030;-68
2022/03/23 12:33:12;;;;;;;19.13;11.02;;;21.00;31.10;;;;;;5024346;28;20244;-71
2022/03/23 12:35:39;;;;;;;22.52;11.60;;;21.00;29.80;;;;;;5007557;28;20034;-67
2022/03/23 12:38:18;;;;;;;21.67;11.77;;;21.00;29.90;;;;;;5006713;28;20061;-70
2022/03/23 12:40:46;;;;;;;22.13;11.45;;;20.90;29.60;;;;;;5017065;28;20435;-69
2022/03/23 12:43:42;;;;;;;21.85;12.13;;;20.80;29.70;;;;;;5014511;28;20044;-70
2022/03/23 12:46:26;;;;;;;21.58;11.15;;;20.80;30.50;;;;;;5011471;28;20131;-71
2022/03/23 13:00:25;;;;;;;21.02;12.15;;;20.80;34.30;;;;;;5005165;28;20467;-69
2022/03/23 13:03:05;;;;;;;18.60;11.50;;;20.80;30.10;;;;;;5009212;28;20030;-69
2022/03/23 13:05:52;;;;;;;20.13;11.88;;;20.60;30.00;;;;;;5010983;28;20034;-70
2022/03/23 13:08:27;;;;;;;20.27;11.82;;;20.60;30.20;;;;;;5017372;28;20037;-72
2022/03/23 13:11:03;;;;;;;20.08;11.75;;;20.80;31.70;;;;;;5010276;28;20100;-71
2022/03/23 13:13:37;;;;;;;23.00;12.07;;;21.00;31.30;;;;;;5009729;28;20109;-70
2022/03/23 13:16:03;;;;;;;20.23;11.63;;;21.00;28.60;;;;;;5010997;28;20113;-69